Rondo — UBMF — position and weather

sailwx.info

Track history (hours):
 
Tides and Currents Weather Stations Pressure Air Temp Water Temp Dewpoint Dewpoint Depression Visibility Wind Speed Wind Dir Waves Ship Positions

Rondo

Last reported at 2017-Oct-17 23:43 UTC. Time now 2017-Oct-20 12:48 UTC.
Position N 45°36' E 036°51'.

Length 108 m; draft 2.4 m.

Type: Cargo ship. MMSI: 273447120.

Date/timePositionNaut miles runAvg speedWind from/ knotsBaromVisibWave heightAir tempDewpointWater temp
2017-Oct-17 23:43N 45°36' E 036°51'2 7.4
2017-Oct-17 23:29N 45°34' E 036°49'4 7.5
2017-Oct-17 23:00N 45°32' E 036°46'4 7.4
2017-Oct-17 22:31N 45°29' E 036°43'4 7.3
2017-Oct-17 22:00N 45°25' E 036°42'4 7.1
2017-Oct-17 21:31N 45°22' E 036°40'4 7.2
2017-Oct-17 21:01N 45°20' E 036°35'4 7.6
2017-Oct-17 20:31N 45°19' E 036°31'3 6.6
2017-Oct-17 20:01N 45°15' E 036°29'3 5.7
2017-Oct-17 19:26N 45°12' E 036°30'1 1.6
2017-Oct-17 19:00N 45°12' E 036°30'0 0.0
2017-Oct-17 18:29N 45°12' E 036°30'0 0.0
2017-Oct-17 17:50N 45°12' E 036°30'0 0.0
2017-Oct-17 17:30N 45°12' E 036°30'0 0.1
2017-Oct-17 17:01N 45°12' E 036°30'0 0.0
2017-Oct-17 16:30N 45°12' E 036°30'0 0.0
2017-Oct-17 16:00N 45°12' E 036°30'0 0.0
2017-Oct-17 15:18N 45°12' E 036°30'0 0.0
2017-Oct-17 15:00N 45°12' E 036°30'0 0.0
2017-Oct-17 14:30N 45°12' E 036°30'0 0.0
2017-Oct-17 14:00N 45°12' E 036°30'0 0.0
2017-Oct-17 13:30N 45°12' E 036°30'0 0.0
2017-Oct-17 13:00N 45°12' E 036°30'0 0.0
2017-Oct-17 12:30N 45°12' E 036°30'0 0.0
2017-Oct-17 11:59N 45°12' E 036°30'0 0.0
2017-Oct-17 11:28N 45°12' E 036°30'0 0.1
2017-Oct-17 11:00N 45°12' E 036°30'0 0.0
2017-Oct-17 10:31N 45°12' E 036°30'0 0.0
2017-Oct-17 10:00N 45°12' E 036°30'0 0.1
2017-Oct-17 09:30N 45°12' E 036°30'0 0.0
2017-Oct-17 09:01N 45°12' E 036°30'0 0.0
2017-Oct-17 08:31N 45°12' E 036°30'0 0.0
2017-Oct-17 08:00N 45°12' E 036°30'0 0.0
2017-Oct-17 07:30N 45°12' E 036°30'0 0.0
2017-Oct-17 07:00N 45°12' E 036°30'0 0.0
2017-Oct-17 06:30N 45°12' E 036°30'0 0.0
2017-Oct-17 06:01N 45°12' E 036°30'0 0.0
2017-Oct-17 05:30N 45°12' E 036°30'0 0.0
2017-Oct-17 05:00N 45°12' E 036°30'0 0.0
2017-Oct-17 04:24N 45°12' E 036°30'0 0.1
2017-Oct-17 03:59N 45°12' E 036°30'1 1.5
2017-Oct-17 03:31N 45°11' E 036°30'  
2017-Oct-14 20:38N 45°09' E 036°28'1 6.4
2017-Oct-14 20:29N 45°10' E 036°28'3 6.3
2017-Oct-14 20:01N 45°13' E 036°28'3 6.1
2017-Oct-14 19:30N 45°16' E 036°28'3 5.6
2017-Oct-14 18:59N 45°18' E 036°30'3 6.0
2017-Oct-14 18:30N 45°20' E 036°34'3 5.9
2017-Oct-14 18:01N 45°21' E 036°38'3 5.5
2017-Oct-14 17:30N 45°23' E 036°40'3 6.0
2017-Oct-14 17:00N 45°26' E 036°41'3 6.2
2017-Oct-14 16:30N 45°29' E 036°40'3 5.4
2017-Oct-14 15:56N 45°31' E 036°37'0 0.0
2017-Oct-14 00:49N 45°31' E 036°36'0 0.0
2017-Oct-14 00:28N 45°31' E 036°36'0 0.0
2017-Oct-13 23:52N 45°31' E 036°37'0 0.0
2017-Oct-13 22:46N 45°31' E 036°37'0 0.0
2017-Oct-13 17:53N 45°31' E 036°37'0 0.0
2017-Oct-13 17:29N 45°31' E 036°37'0 0.0
2017-Oct-13 16:56N 45°31' E 036°37'0 0.0
2017-Oct-13 16:20N 45°31' E 036°37'0 0.0
2017-Oct-13 15:05N 45°31' E 036°37'0 0.0
2017-Oct-13 14:59N 45°31' E 036°37'0 0.0
2017-Oct-13 14:29N 45°31' E 036°37'0 0.0
2017-Oct-13 13:56N 45°31' E 036°36'0 0.0
2017-Oct-13 13:26N 45°31' E 036°36'0 0.0
2017-Oct-12 16:12N 45°31' E 036°36'0 0.0
2017-Oct-12 13:27N 45°31' E 036°36'0 0.0
2017-Oct-12 11:07N 45°31' E 036°37'0 2.9
2017-Oct-12 11:00N 45°31' E 036°37'3 6.1
2017-Oct-12 10:30N 45°33' E 036°40'3 6.9
2017-Oct-12 10:00N 45°34' E 036°45'3 6.9
2017-Oct-12 09:30N 45°37' E 036°48'  
Track history (hours):
 
Tides and Currents Weather Stations Pressure Air Temp Water Temp Dewpoint Dewpoint Depression Visibility Wind Speed Wind Dir Waves Ship Positions

Rondo

Last reported at 2017-Oct-17 23:43 UTC. Time now 2017-Oct-20 12:48 UTC.
Position N 45°36' E 036°51'.

Length 108 m; draft 2.4 m.

Type: Cargo ship. MMSI: 273447120.

Date/timePositionNaut miles runAvg speedWind from/ knotsBaromVisibWave heightAir tempDewpointWater temp
2017-Oct-17 23:43N 45°36' E 036°51'2 7.4
2017-Oct-17 23:29N 45°34' E 036°49'4 7.5
2017-Oct-17 23:00N 45°32' E 036°46'4 7.4
2017-Oct-17 22:31N 45°29' E 036°43'4 7.3
2017-Oct-17 22:00N 45°25' E 036°42'4 7.1
2017-Oct-17 21:31N 45°22' E 036°40'4 7.2
2017-Oct-17 21:01N 45°20' E 036°35'4 7.6
2017-Oct-17 20:31N 45°19' E 036°31'3 6.6
2017-Oct-17 20:01N 45°15' E 036°29'3 5.7
2017-Oct-17 19:26N 45°12' E 036°30'1 1.6
2017-Oct-17 19:00N 45°12' E 036°30'0 0.0
2017-Oct-17 18:29N 45°12' E 036°30'0 0.0
2017-Oct-17 17:50N 45°12' E 036°30'0 0.0
2017-Oct-17 17:30N 45°12' E 036°30'0 0.1
2017-Oct-17 17:01N 45°12' E 036°30'0 0.0
2017-Oct-17 16:30N 45°12' E 036°30'0 0.0
2017-Oct-17 16:00N 45°12' E 036°30'0 0.0
2017-Oct-17 15:18N 45°12' E 036°30'0 0.0
2017-Oct-17 15:00N 45°12' E 036°30'0 0.0
2017-Oct-17 14:30N 45°12' E 036°30'0 0.0
2017-Oct-17 14:00N 45°12' E 036°30'0 0.0
2017-Oct-17 13:30N 45°12' E 036°30'0 0.0
2017-Oct-17 13:00N 45°12' E 036°30'0 0.0
2017-Oct-17 12:30N 45°12' E 036°30'0 0.0
2017-Oct-17 11:59N 45°12' E 036°30'0 0.0
2017-Oct-17 11:28N 45°12' E 036°30'0 0.1
2017-Oct-17 11:00N 45°12' E 036°30'0 0.0
2017-Oct-17 10:31N 45°12' E 036°30'0 0.0
2017-Oct-17 10:00N 45°12' E 036°30'0 0.1
2017-Oct-17 09:30N 45°12' E 036°30'0 0.0
2017-Oct-17 09:01N 45°12' E 036°30'0 0.0
2017-Oct-17 08:31N 45°12' E 036°30'0 0.0
2017-Oct-17 08:00N 45°12' E 036°30'0 0.0
2017-Oct-17 07:30N 45°12' E 036°30'0 0.0
2017-Oct-17 07:00N 45°12' E 036°30'0 0.0
2017-Oct-17 06:30N 45°12' E 036°30'0 0.0
2017-Oct-17 06:01N 45°12' E 036°30'0 0.0
2017-Oct-17 05:30N 45°12' E 036°30'0 0.0
2017-Oct-17 05:00N 45°12' E 036°30'0 0.0
2017-Oct-17 04:24N 45°12' E 036°30'0 0.1
2017-Oct-17 03:59N 45°12' E 036°30'1 1.5
2017-Oct-17 03:31N 45°11' E 036°30'  
2017-Oct-14 20:38N 45°09' E 036°28'1 6.4
2017-Oct-14 20:29N 45°10' E 036°28'3 6.3
2017-Oct-14 20:01N 45°13' E 036°28'3 6.1
2017-Oct-14 19:30N 45°16' E 036°28'3 5.6
2017-Oct-14 18:59N 45°18' E 036°30'3 6.0
2017-Oct-14 18:30N 45°20' E 036°34'3 5.9
2017-Oct-14 18:01N 45°21' E 036°38'3 5.5
2017-Oct-14 17:30N 45°23' E 036°40'3 6.0
2017-Oct-14 17:00N 45°26' E 036°41'3 6.2
2017-Oct-14 16:30N 45°29' E 036°40'3 5.4
2017-Oct-14 15:56N 45°31' E 036°37'0 0.0
2017-Oct-14 00:49N 45°31' E 036°36'0 0.0
2017-Oct-14 00:28N 45°31' E 036°36'0 0.0
2017-Oct-13 23:52N 45°31' E 036°37'0 0.0
2017-Oct-13 22:46N 45°31' E 036°37'0 0.0
2017-Oct-13 17:53N 45°31' E 036°37'0 0.0
2017-Oct-13 17:29N 45°31' E 036°37'0 0.0
2017-Oct-13 16:56N 45°31' E 036°37'0 0.0
2017-Oct-13 16:20N 45°31' E 036°37'0 0.0
2017-Oct-13 15:05N 45°31' E 036°37'0 0.0
2017-Oct-13 14:59N 45°31' E 036°37'0 0.0
2017-Oct-13 14:29N 45°31' E 036°37'0 0.0
2017-Oct-13 13:56N 45°31' E 036°36'0 0.0
2017-Oct-13 13:26N 45°31' E 036°36'0 0.0
2017-Oct-12 16:12N 45°31' E 036°36'0 0.0
2017-Oct-12 13:27N 45°31' E 036°36'0 0.0
2017-Oct-12 11:07N 45°31' E 036°37'0 2.9
2017-Oct-12 11:00N 45°31' E 036°37'3 6.1
2017-Oct-12 10:30N 45°33' E 036°40'3 6.9
2017-Oct-12 10:00N 45°34' E 036°45'3 6.9
2017-Oct-12 09:30N 45°37' E 036°48'  

Dump ship's entire track history